Ohshima Kazumaru — JD2908 — position and weather

sailwx.info

Track history (hours):
 
Tides and Currents Weather Stations Pressure Air Temp Water Temp Dewpoint Dewpoint Depression Visibility Wind Speed Wind Dir Waves Ship Positions

Ohshima Kazumaru

Last reported at 2018-Jan-20 16:32 UTC. Time now 2018-Jan-20 17:20 UTC.
Position N 34°34' E 138°27'.

Length 69 m; draft 4 m.

Type: Cargo ship. MMSI: 431000925.

Date/timePositionNaut miles runAvg speedWind from/ knotsBaromVisibWave heightAir tempDewpointWater temp
2018-Jan-20 16:32N 34°34' E 138°27'111.3
2018-Jan-20 16:29N 34°34' E 138°28'611.9
2018-Jan-20 16:00N 34°35' E 138°35'611.9
2018-Jan-20 15:30N 34°35' E 138°42'611.4
2018-Jan-20 15:00N 34°35' E 138°49'510.1
2018-Jan-20 14:31N 34°36' E 138°55'710.1
2018-Jan-20 13:50N 34°40' E 139°01'411.8
2018-Jan-20 13:31N 34°43' E 139°04'611.7
2018-Jan-20 12:59N 34°48' E 139°09'612.2
2018-Jan-20 12:28N 34°53' E 139°14'511.5
2018-Jan-20 12:00N 34°56' E 139°19'611.2
2018-Jan-20 11:29N 34°59' E 139°25'612.1
2018-Jan-20 11:00N 35°02' E 139°31'612.4
2018-Jan-20 10:30N 35°05' E 139°38'612.3
2018-Jan-20 10:00N 35°09' E 139°43'611.9
2018-Jan-20 09:30N 35°15' E 139°46'611.7
2018-Jan-20 09:00N 35°20' E 139°43'611.0
2018-Jan-20 08:30N 35°25' E 139°44'612.1
2018-Jan-20 08:00N 35°29' E 139°50'612.1
2018-Jan-20 07:30N 35°34' E 139°55'5 0.5
2018-Jan-19 21:10N 35°37' E 139°59'1 4.7
2018-Jan-19 21:00N 35°37' E 139°58'0 0.0
2018-Jan-19 20:30N 35°37' E 139°58'0 0.0
2018-Jan-19 18:01N 35°37' E 139°58'0 0.4
2018-Jan-19 18:00N 35°37' E 139°58'3 5.9
2018-Jan-19 17:28N 35°34' E 139°56'612.2
2018-Jan-19 17:00N 35°29' E 139°52'611.9
2018-Jan-19 16:30N 35°25' E 139°47'611.8
2018-Jan-19 16:00N 35°20' E 139°44'611.5
2018-Jan-19 15:30N 35°14' E 139°47'611.7
2018-Jan-19 15:00N 35°09' E 139°46'612.0
2018-Jan-19 14:30N 35°03' E 139°42'611.8
2018-Jan-19 14:01N 34°60' E 139°37'611.9
2018-Jan-19 13:30N 34°56' E 139°31'1512.5
2018-Jan-19 12:17N 34°47' E 139°16'912.7
2018-Jan-19 11:35N 34°42' E 139°07'312.4
2018-Jan-19 11:21N 34°40' E 139°05'511.6
2018-Jan-19 10:56N 34°37' E 138°60'1411.4
2018-Jan-19 09:40N 34°34' E 138°43'311.5
2018-Jan-19 09:22N 34°34' E 138°39'411.3
2018-Jan-19 08:59N 34°33' E 138°33'711.4
2018-Jan-19 08:20N 34°33' E 138°24'711.1
2018-Jan-19 07:43N 34°32' E 138°16'310.7
2018-Jan-19 07:25N 34°32' E 138°12'510.9
2018-Jan-19 06:59N 34°31' E 138°06'15710.1
2018-Jan-18 15:26N 33°50' E 135°03'613.0
2018-Jan-18 14:58N 33°55' E 134°59'612.7
2018-Jan-18 14:30N 33°59' E 134°54'612.1
2018-Jan-18 14:00N 34°03' E 134°49'712.9
2018-Jan-18 13:30N 34°09' E 134°44'612.5
2018-Jan-18 13:01N 34°13' E 134°40'612.1
2018-Jan-18 12:30N 34°16' E 134°33'612.1
2018-Jan-18 12:01N 34°19' E 134°27'612.1
2018-Jan-18 11:29N 34°22' E 134°20'  
2018-Jan-11 05:09N 34°26' E 134°23'212.1
2018-Jan-11 04:58N 34°27' E 134°25'712.0
2018-Jan-11 04:22N 34°31' E 134°32'412.0
2018-Jan-11 04:00N 34°34' E 134°37'611.9
2018-Jan-11 03:30N 34°37' E 134°43'610.9
2018-Jan-11 03:00N 34°39' E 134°49'0 0.2
2018-Jan-11 02:30N 34°39' E 134°49'0 0.0
2018-Jan-11 02:00N 34°39' E 134°49'0 0.1
2018-Jan-11 01:30N 34°39' E 134°49'4 9.0
2018-Jan-11 01:00N 34°37' E 134°54'510.1
2018-Jan-11 00:30N 34°38' E 134°60'510.4
2018-Jan-11 00:00N 34°35' E 135°05'611.9
2018-Jan-10 23:30N 34°29' E 135°04'612.2
2018-Jan-10 23:00N 34°23' E 135°03'611.2
2018-Jan-10 22:30N 34°18' E 134°60'510.9
2018-Jan-10 22:00N 34°13' E 134°60'611.1
2018-Jan-10 21:30N 34°07' E 135°00'510.9
2018-Jan-10 21:00N 34°02' E 135°00'510.9
2018-Jan-10 20:31N 33°56' E 135°01'510.3
2018-Jan-10 20:00N 33°51' E 135°02'710.3
2018-Jan-10 19:21N 33°46' E 135°07'  
Track history (hours):
 
Tides and Currents Weather Stations Pressure Air Temp Water Temp Dewpoint Dewpoint Depression Visibility Wind Speed Wind Dir Waves Ship Positions

Ohshima Kazumaru

Last reported at 2018-Jan-20 16:32 UTC. Time now 2018-Jan-20 17:20 UTC.
Position N 34°34' E 138°27'.

Length 69 m; draft 4 m.

Type: Cargo ship. MMSI: 431000925.

Date/timePositionNaut miles runAvg speedWind from/ knotsBaromVisibWave heightAir tempDewpointWater temp
2018-Jan-20 16:32N 34°34' E 138°27'111.3
2018-Jan-20 16:29N 34°34' E 138°28'611.9
2018-Jan-20 16:00N 34°35' E 138°35'611.9
2018-Jan-20 15:30N 34°35' E 138°42'611.4
2018-Jan-20 15:00N 34°35' E 138°49'510.1
2018-Jan-20 14:31N 34°36' E 138°55'710.1
2018-Jan-20 13:50N 34°40' E 139°01'411.8
2018-Jan-20 13:31N 34°43' E 139°04'611.7
2018-Jan-20 12:59N 34°48' E 139°09'612.2
2018-Jan-20 12:28N 34°53' E 139°14'511.5
2018-Jan-20 12:00N 34°56' E 139°19'611.2
2018-Jan-20 11:29N 34°59' E 139°25'612.1
2018-Jan-20 11:00N 35°02' E 139°31'612.4
2018-Jan-20 10:30N 35°05' E 139°38'612.3
2018-Jan-20 10:00N 35°09' E 139°43'611.9
2018-Jan-20 09:30N 35°15' E 139°46'611.7
2018-Jan-20 09:00N 35°20' E 139°43'611.0
2018-Jan-20 08:30N 35°25' E 139°44'612.1
2018-Jan-20 08:00N 35°29' E 139°50'612.1
2018-Jan-20 07:30N 35°34' E 139°55'5 0.5
2018-Jan-19 21:10N 35°37' E 139°59'1 4.7
2018-Jan-19 21:00N 35°37' E 139°58'0 0.0
2018-Jan-19 20:30N 35°37' E 139°58'0 0.0
2018-Jan-19 18:01N 35°37' E 139°58'0 0.4
2018-Jan-19 18:00N 35°37' E 139°58'3 5.9
2018-Jan-19 17:28N 35°34' E 139°56'612.2
2018-Jan-19 17:00N 35°29' E 139°52'611.9
2018-Jan-19 16:30N 35°25' E 139°47'611.8
2018-Jan-19 16:00N 35°20' E 139°44'611.5
2018-Jan-19 15:30N 35°14' E 139°47'611.7
2018-Jan-19 15:00N 35°09' E 139°46'612.0
2018-Jan-19 14:30N 35°03' E 139°42'611.8
2018-Jan-19 14:01N 34°60' E 139°37'611.9
2018-Jan-19 13:30N 34°56' E 139°31'1512.5
2018-Jan-19 12:17N 34°47' E 139°16'912.7
2018-Jan-19 11:35N 34°42' E 139°07'312.4
2018-Jan-19 11:21N 34°40' E 139°05'511.6
2018-Jan-19 10:56N 34°37' E 138°60'1411.4
2018-Jan-19 09:40N 34°34' E 138°43'311.5
2018-Jan-19 09:22N 34°34' E 138°39'411.3
2018-Jan-19 08:59N 34°33' E 138°33'711.4
2018-Jan-19 08:20N 34°33' E 138°24'711.1
2018-Jan-19 07:43N 34°32' E 138°16'310.7
2018-Jan-19 07:25N 34°32' E 138°12'510.9
2018-Jan-19 06:59N 34°31' E 138°06'15710.1
2018-Jan-18 15:26N 33°50' E 135°03'613.0
2018-Jan-18 14:58N 33°55' E 134°59'612.7
2018-Jan-18 14:30N 33°59' E 134°54'612.1
2018-Jan-18 14:00N 34°03' E 134°49'712.9
2018-Jan-18 13:30N 34°09' E 134°44'612.5
2018-Jan-18 13:01N 34°13' E 134°40'612.1
2018-Jan-18 12:30N 34°16' E 134°33'612.1
2018-Jan-18 12:01N 34°19' E 134°27'612.1
2018-Jan-18 11:29N 34°22' E 134°20'  
2018-Jan-11 05:09N 34°26' E 134°23'212.1
2018-Jan-11 04:58N 34°27' E 134°25'712.0
2018-Jan-11 04:22N 34°31' E 134°32'412.0
2018-Jan-11 04:00N 34°34' E 134°37'611.9
2018-Jan-11 03:30N 34°37' E 134°43'610.9
2018-Jan-11 03:00N 34°39' E 134°49'0 0.2
2018-Jan-11 02:30N 34°39' E 134°49'0 0.0
2018-Jan-11 02:00N 34°39' E 134°49'0 0.1
2018-Jan-11 01:30N 34°39' E 134°49'4 9.0
2018-Jan-11 01:00N 34°37' E 134°54'510.1
2018-Jan-11 00:30N 34°38' E 134°60'510.4
2018-Jan-11 00:00N 34°35' E 135°05'611.9
2018-Jan-10 23:30N 34°29' E 135°04'612.2
2018-Jan-10 23:00N 34°23' E 135°03'611.2
2018-Jan-10 22:30N 34°18' E 134°60'510.9
2018-Jan-10 22:00N 34°13' E 134°60'611.1
2018-Jan-10 21:30N 34°07' E 135°00'510.9
2018-Jan-10 21:00N 34°02' E 135°00'510.9
2018-Jan-10 20:31N 33°56' E 135°01'510.3
2018-Jan-10 20:00N 33°51' E 135°02'710.3
2018-Jan-10 19:21N 33°46' E 135°07'  

Dump ship's entire track history